• Join FlightAware (Why Join?)
  • Login
  • US Flag 
06:04AM EDT


 

Airport Tracker/Info


-or-


 

Live Flight TrackerFlight Track Log ✈ N267RH ✈ 23-Apr-2013 ✈ KTUP - KMEM

Flight Track Log - Related Links

Times and Time Zones

All times are in EDT time to prevent confusion due to time zone crossing. See the N267RH flight status page for this flight to view local times or setup timezone preferences in your user account.

Time Position Orientation Groundspeed Altitude Reporting Facility
EDT Latitude Longitude Course Direction KTS MPH feet Rate Location/Type
02:26PM 34.3011 -88.8486 306° West 119 137 2,600  Level Memphis Center
02:27PM 34.3726 -88.9209 306° West  Level FlightAware Approximate
02:27PM 34.3203 -88.8758 310° West 119 137 3,300  Level Memphis Center
02:28PM 34.3888 -88.9480 306° West  Level FlightAware Approximate
02:28PM 34.3372 -88.9033 307° West 113 130 3,900  Level Memphis Center
02:29PM 34.3544 -88.9306 307° West 107 123 4,400 420 Climbing Memphis Center
02:30PM 34.3733 -88.9556 312° West 107 123 4,800 360 Climbing Memphis Center
02:31PM 34.3906 -88.9853 305° West 107 123 5,200 420 Climbing Memphis Center
02:32PM 34.4075 -89.0103 309° West 107 123 5,700 360 Climbing Memphis Center
02:33PM 34.4264 -89.0378 310° West 107 123 6,000 120 Climbing Memphis Center
02:34PM 34.4478 -89.0703 309° West 112 129 6,000  Level Memphis Center
02:35PM 34.4711 -89.1025 311° West 117 135 6,000 120 Level Memphis Center
02:36PM 34.4900 -89.1325 307° West 117 135 6,300 300 Climbing Memphis Center
02:37PM 34.5050 -89.1575 306° West 112 129 6,700 300 Climbing Memphis Center
02:38PM 34.5239 -89.1850 310° West 106 122 7,000 300 Climbing Memphis Center
02:39PM 34.5431 -89.2125 310° West 106 122 7,400 360 Climbing Memphis Center
02:40PM 34.5578 -89.2350 308° West 101 116 7,800 240 Climbing Memphis Center
02:41PM 34.5725 -89.2575 308° West 96 110 7,900  Climbing Memphis Center
02:42PM 34.5917 -89.2850 310° West 101 116 7,900  Level Memphis Center
02:43PM 34.6108 -89.3175 306° West 112 129 7,900  Level Memphis Center
02:44PM 34.6278 -89.3475 304° West 112 129 7,900  Level Memphis Center
02:45PM 34.6508 -89.3750 316° Northwest 112 129 7,900 -300 Level Memphis Center
02:46PM 34.6844 -89.3922 337° Northwest 112 129 7,400 -780 Descending Memphis Center
02:47PM 34.7242 -89.4122 338° Northwest 136 157 6,400 -1,020 Descending Memphis Center
02:48PM 34.7597 -89.4369 330° Northwest 150 173 5,400 -840 Descending Memphis Center
02:49PM 34.7997 -89.4669 328° Northwest 150 173 4,800 1,260 Descending Memphis Center
02:50PM 34.8353 -89.4919 330° Northwest 150 173 8,000 -420 Climbing Memphis Center
02:52PM 34.8833 -89.5333 325° Northwest 136 157 3,800 -1,800 Descending KMEM
02:53PM 34.9333 -89.5667 331° Northwest 151 174 3,200 -480 Descending KMEM
02:54PM 34.9500 -89.6000 301° West 144 166 2,900 -120 Descending KMEM
02:56PM 35.0167 -89.6500 328° Northwest 131 151 2,900  Level KMEM
02:57PM 35.0333 -89.6833 301° West 133 153 2,900  Level KMEM
02:58PM 35.0667 -89.7167 321° Northwest 134 154 2,900  Level KMEM
02:59PM 35.1000 -89.7500 321° Northwest 134 154 2,900  Level KMEM
03:00PM 35.1167 -89.7667 321° Northwest 132 152 2,900 -120 Level KMEM
03:01PM 35.1667 -89.7833 345° North 146 168 2,700 -360 Descending KMEM
03:02PM 35.2000 -89.8000 338° Northwest 142 163 2,300 -240 Descending KMEM
03:03PM 35.2167 -89.8333 301° West 112 129 2,300 -60 Level KMEM
03:04PM 35.2167 -89.8667 270° West 106 122 2,200  Descending KMEM
03:05PM 35.2000 -89.9000 239° Southwest 104 120 2,300  Climbing KMEM
03:06PM 35.1833 -89.9333 239° Southwest 104 120 2,300  Level KMEM
03:07PM 35.1667 -89.9667 239° Southwest 100 115 2,300 -180 Level KMEM
03:08PM 35.1500 -89.9667 180° South 105 121 2,000 -420 Descending KMEM
03:09PM 35.1167 -89.9833 202° Southwest 98 113 1,500 -480 Descending KMEM
03:10PM 35.1000 -89.9667 141° Southeast 99 114 1,100 -480 Descending KMEM
03:11PM 35.0667 -89.9667 180° South 98 113 600 -540 Descending KMEM
03:13PM 35.0424 -89.9767 228° Southwest  Level Estimated
03:20PM 35.0424 -89.9767 228° Southwest  Level Estimated
03:21PM 35.0424 -89.9767 228° Southwest  Level Estimated
03:22PM 35.0424 -89.9767 228° Southwest  Level Estimated
03:23PM 35.0424 -89.9767 228° Southwest  Level Estimated